Terminal Aerodrome Forecast
Issued by NWS Missoula, MT

Home | Current Version | Previous Version | Text Only | Print | Product List | Glossary On
Versions: 1 2 3 4 5 6 7 8 9 10 11 12
603
FTUS45 KMSO 090520
TAFMSO
TAF
KMSO 090520Z 0906/1006 10007KT P6SM -SN OVC050
     FM090800 12006KT 2SM -SN OVC020
     FM091500 10007KT P6SM VCSH SCT020 OVC050
     FM100000 VRB05KT 3SM -SN OVC020=

USA.gov is the U.S. government's official web portal to all federal, state and local government web resources and services.